This is the latest recevied weather packets stored in our database for station/object KF0FSA. If no packets are shown the sender has not sent any weather packets the latest 10 day(s).
| Time | Temp. | Humidity | Pressure | Rain* | Wind** | Luminosity | Snow |
|---|---|---|---|---|---|---|---|
| 1778021171 | 10° C | 35% | 959.2 hPa | 0 mm | - | 214 W/m² | - |
| 1778020752 | 10° C | 34% | 959.2 hPa | 0 mm | - | 209 W/m² | - |
| 1778020447 | 10° C | 34% | 959.2 hPa | 0 mm | - | 212 W/m² | - |
| 1778020147 | 10° C | 35% | 959 hPa | 0 mm | - | 500 W/m² | - |
| 1778019847 | 10° C | 35% | 959.2 hPa | 0 mm | - | 214 W/m² | - |
| 1778019547 | 10° C | 35% | 959.3 hPa | 0 mm | - | 215 W/m² | - |
| 1778019247 | 10° C | 35% | 959.3 hPa | 0 mm | - | 227 W/m² | - |
| 1778019072 | 10° C | 34% | 959.2 hPa | 0 mm | - | 259 W/m² | - |
| 1778018648 | 10° C | 34% | 959.1 hPa | 0 mm | - | 252 W/m² | - |
| 1778018345 | 10° C | 35% | 959.3 hPa | 0 mm | - | 269 W/m² | - |
| 1778018045 | 10° C | 34% | 959.2 hPa | 0 mm | - | 273 W/m² | - |
| 1778017746 | 10.56° C | 33% | 959.3 hPa | 0 mm | - | 236 W/m² | - |
| 1778017446 | 10.56° C | 33% | 959.2 hPa | 0 mm | - | 309 W/m² | - |
| 1778017147 | 10.56° C | 33% | 959.3 hPa | 0 mm | - | 311 W/m² | - |
| 1778016845 | 10.56° C | 32% | 959.3 hPa | 0 mm | - | 304 W/m² | - |
| 1778016545 | 11.11° C | 32% | 959.3 hPa | 0 mm | - | 305 W/m² | - |
| 1778016246 | 11.67° C | 31% | 959.1 hPa | 0 mm | - | 513 W/m² | - |
| 1778015947 | 11.11° C | 32% | 958.8 hPa | 0 mm | - | 894 W/m² | - |
| 1778015646 | 10.56° C | 32% | 958.9 hPa | 0 mm | - | 773 W/m² | - |
| 1778015470 | 10.56° C | 32% | 959.2 hPa | 0 mm | - | 382 W/m² | - |
| 1778015047 | 10.56° C | 32% | 959.3 hPa | 0 mm | - | 399 W/m² | - |
| 1778014757 | 11.11° C | 33% | 959.3 hPa | 0 mm | - | 429 W/m² | - |
| 1778014446 | 11.11° C | 33% | 959.2 hPa | 0 mm | - | 363 W/m² | - |
| 1778014272 | 11.67° C | 32% | 959.2 hPa | 0 mm | - | 417 W/m² | - |
| 1778013845 | 11.11° C | 31% | 958.9 hPa | 0 mm | - | 972 W/m² | - |
* Rain latest hour (hover to see other rain measurements)
** Current wind speed in m/s (hover to see current wind gust speed)